Time;durP1;ratioP1;P1;durP2;ratioP2;P2;SDS_P1;SDS_P2;PMS_P1;PMS_P2;Temp;Humidity;BMP_temperature;BMP_pressure;BME280_temperature;BME280_humidity;BME280_pressure;Samples;Min_cycle;Max_cycle;Signal;HPM_P1;HPM_P2
2023/09/12 00:00:27;;;;;;;12.90;11.70;;;;;;;;;;5073247;28;20442;-69
2023/09/12 00:02:53;;;;;;;11.73;10.70;;;;;;;;;;5073036;28;20485;-69
2023/09/12 00:05:20;;;;;;;12.30;10.23;;;;;;;;;;5073090;28;20806;-69
2023/09/12 00:07:49;;;;;;;12.97;11.77;;;;;;;;;;5073108;28;20479;-69
2023/09/12 00:10:16;;;;;;;11.83;10.70;;;;;;;;;;5072999;28;20533;-69
2023/09/12 00:12:43;;;;;;;12.27;11.27;;;;;;;;;;5072892;28;20934;-69
2023/09/12 00:15:10;;;;;;;12.70;11.00;;;;;;;;;;5073103;28;20538;-69
2023/09/12 00:17:37;;;;;;;12.47;11.30;;;;;;;;;;5072996;28;20526;-69
2023/09/12 00:20:06;;;;;;;13.10;11.77;;;;;;;;;;5072949;28;20881;-69
2023/09/12 00:22:33;;;;;;;16.43;12.67;;;;;;;;;;5072738;28;20494;-69
2023/09/12 00:25:01;;;;;;;13.10;12.00;;;;;;;;;;5072800;28;20497;-69
2023/09/12 00:27:28;;;;;;;12.00;10.90;;;;;;;;;;5072862;28;20451;-69
2023/09/12 00:29:55;;;;;;;12.70;11.50;;;;;;;;;;5072997;28;20882;-69
2023/09/12 00:32:22;;;;;;;16.63;12.23;;;;;;;;;;5072804;28;20542;-69
2023/09/12 00:34:49;;;;;;;13.37;11.90;;;;;;;;;;5072770;28;20470;-69
2023/09/12 00:37:16;;;;;;;12.00;10.80;;;;;;;;;;5072418;28;20989;-69
2023/09/12 00:39:43;;;;;;;11.97;10.60;;;;;;;;;;5072579;28;20479;-68
2023/09/12 00:42:11;;;;;;;11.40;10.30;;;;;;;;;;5072843;28;20483;-69
2023/09/12 00:44:38;;;;;;;13.80;12.40;;;;;;;;;;5072736;28;20562;-69
2023/09/12 00:47:05;;;;;;;13.27;12.10;;;;;;;;;;5072671;28;20450;-69
2023/09/12 00:49:33;;;;;;;13.77;12.57;;;;;;;;;;5075944;28;20802;-69
2023/09/12 00:52:01;;;;;;;12.87;11.63;;;;;;;;;;5076451;28;20547;-69
2023/09/12 00:54:28;;;;;;;12.10;10.70;;;;;;;;;;5076350;28;20483;-69
2023/09/12 00:56:55;;;;;;;12.60;11.50;;;;;;;;;;5076518;28;20449;-69
2023/09/12 00:59:24;;;;;;;12.90;11.30;;;;;;;;;;5076473;28;20443;-69
2023/09/12 01:01:52;;;;;;;14.27;12.93;;;;;;;;;;5076428;28;20451;-69
2023/09/12 01:59:28;;;;;;;14.80;13.33;;;;;;;;;;2213233;28;22505;-69
2023/09/12 02:01:55;;;;;;;13.17;11.97;;;;;;;;;;5075371;28;20443;-69
2023/09/12 02:04:22;;;;;;;14.27;11.70;;;;;;;;;;5075033;28;20485;-69
2023/09/12 02:06:48;;;;;;;13.67;12.27;;;;;;;;;;5075322;28;20443;-68
2023/09/12 02:09:15;;;;;;;13.37;12.27;;;;;;;;;;5075127;28;20534;-69
2023/09/12 02:11:43;;;;;;;13.60;12.43;;;;;;;;;;5075057;28;20528;-69
2023/09/12 02:14:10;;;;;;;12.53;11.33;;;;;;;;;;5074889;28;20446;-69
2023/09/12 02:16:39;;;;;;;14.07;12.73;;;;;;;;;;5075178;28;20443;-69
2023/09/12 02:19:06;;;;;;;14.57;13.10;;;;;;;;;;5074989;28;20471;-69
2023/09/12 02:21:33;;;;;;;14.30;13.00;;;;;;;;;;5074910;28;20538;-69
2023/09/12 02:24:00;;;;;;;14.13;12.83;;;;;;;;;;5074763;28;20475;-69
2023/09/12 02:26:27;;;;;;;15.10;12.27;;;;;;;;;;5074737;28;20447;-69
2023/09/12 02:28:54;;;;;;;14.13;12.67;;;;;;;;;;5074599;28;20439;-69
2023/09/12 02:31:21;;;;;;;14.13;12.27;;;;;;;;;;5074844;28;20534;-69
2023/09/12 02:33:49;;;;;;;12.73;11.63;;;;;;;;;;5074705;28;20447;-69
2023/09/12 02:36:16;;;;;;;13.80;12.50;;;;;;;;;;5074637;28;20443;-68
2023/09/12 02:38:43;;;;;;;13.40;12.10;;;;;;;;;;5074599;28;20524;-69
2023/09/12 02:41:10;;;;;;;13.53;12.27;;;;;;;;;;5074380;28;20439;-68
2023/09/12 02:43:37;;;;;;;13.60;12.50;;;;;;;;;;5074570;28;20570;-69
2023/09/12 02:46:03;;;;;;;13.63;12.43;;;;;;;;;;5074479;28;20452;-69
2023/09/12 02:48:30;;;;;;;14.80;12.30;;;;;;;;;;5074331;28;20495;-68
2023/09/12 02:50:59;;;;;;;16.23;12.90;;;;;;;;;;5074256;28;20871;-68
2023/09/12 02:53:26;;;;;;;14.37;12.90;;;;;;;;;;5074202;28;20475;-68
2023/09/12 02:55:54;;;;;;;15.03;13.20;;;;;;;;;;5073994;28;20538;-68
2023/09/12 02:58:21;;;;;;;13.80;12.40;;;;;;;;;;5074090;28;20946;-68
2023/09/12 03:00:50;;;;;;;14.70;12.27;;;;;;;;;;5073949;28;20482;-68
2023/09/12 03:03:17;;;;;;;14.90;13.33;;;;;;;;;;5074114;28;20471;-69
2023/09/12 03:05:43;;;;;;;14.67;13.00;;;;;;;;;;5074144;28;20494;-68
2023/09/12 03:08:12;;;;;;;14.10;12.80;;;;;;;;;;5073882;28;20783;-68
2023/09/12 03:10:39;;;;;;;12.63;11.43;;;;;;;;;;5073293;28;20446;-68
2023/09/12 03:13:06;;;;;;;13.23;12.03;;;;;;;;;;5073961;28;20440;-68
2023/09/12 03:15:37;;;;;;;14.60;13.27;;;;;;;;;;5073822;28;20450;-68
2023/09/12 03:18:05;;;;;;;14.00;12.80;;;;;;;;;;5073799;28;20458;-69
2023/09/12 03:20:32;;;;;;;15.43;13.00;;;;;;;;;;5073648;28;20450;-69
2023/09/12 03:22:59;;;;;;;13.73;12.33;;;;;;;;;;5073446;28;20517;-69
2023/09/12 03:25:27;;;;;;;14.53;13.20;;;;;;;;;;5073933;28;20538;-68
2023/09/12 03:27:54;;;;;;;13.37;12.10;;;;;;;;;;5073631;28;20451;-69
2023/09/12 03:30:22;;;;;;;13.60;12.30;;;;;;;;;;5073475;28;20946;-68
2023/09/12 03:32:48;;;;;;;13.60;12.40;;;;;;;;;;5073361;28;20961;-68
2023/09/12 03:35:15;;;;;;;14.17;12.80;;;;;;;;;;5073327;28;20447;-68
2023/09/12 03:37:43;;;;;;;12.63;11.37;;;;;;;;;;5073534;28;20444;-68
2023/09/12 03:40:11;;;;;;;13.83;12.40;;;;;;;;;;5073434;28;20486;-68
2023/09/12 03:42:39;;;;;;;13.60;12.40;;;;;;;;;;5073352;28;20852;-68
2023/09/12 03:45:06;;;;;;;19.93;14.40;;;;;;;;;;5073267;28;20483;-68
2023/09/12 03:47:33;;;;;;;13.70;12.33;;;;;;;;;;5073271;28;20447;-68
2023/09/12 03:50:00;;;;;;;16.53;13.50;;;;;;;;;;5073180;28;20867;-69
2023/09/12 03:52:27;;;;;;;15.03;12.43;;;;;;;;;;5073382;28;20475;-68
2023/09/12 03:54:54;;;;;;;14.43;12.90;;;;;;;;;;5073310;28;20479;-68
2023/09/12 03:57:21;;;;;;;14.90;13.30;;;;;;;;;;5073279;28;20486;-68
2023/09/12 03:59:51;;;;;;;20.30;13.10;;;;;;;;;;5073015;28;20472;-69
2023/09/12 04:02:18;;;;;;;16.20;13.23;;;;;;;;;;5073081;28;20471;-68
2023/09/12 04:04:44;;;;;;;13.53;12.17;;;;;;;;;;5072869;28;20487;-68
2023/09/12 04:07:11;;;;;;;15.23;13.40;;;;;;;;;;5073202;28;20787;-68
2023/09/12 04:09:38;;;;;;;13.77;12.37;;;;;;;;;;5073064;28;20482;-68
2023/09/12 04:12:06;;;;;;;14.30;12.97;;;;;;;;;;5072912;28;20546;-69
2023/09/12 04:14:33;;;;;;;14.17;12.77;;;;;;;;;;5072943;28;21081;-68
2023/09/12 04:17:01;;;;;;;14.67;13.27;;;;;;;;;;5072817;28;20538;-69
2023/09/12 04:19:28;;;;;;;15.10;13.23;;;;;;;;;;5073095;28;20486;-69
2023/09/12 04:21:55;;;;;;;13.53;12.33;;;;;;;;;;5072727;28;21008;-68
2023/09/12 04:24:22;;;;;;;14.00;12.70;;;;;;;;;;5076110;28;20483;-69
2023/09/12 04:26:49;;;;;;;13.17;11.50;;;;;;;;;;5076988;28;20529;-68
2023/09/12 04:29:16;;;;;;;14.07;12.73;;;;;;;;;;5076791;28;20929;-69
2023/09/12 04:31:44;;;;;;;13.23;12.03;;;;;;;;;;5076699;28;20446;-68
2023/09/12 04:34:12;;;;;;;13.17;11.37;;;;;;;;;;5077062;28;21013;-69
2023/09/12 04:36:39;;;;;;;16.73;13.53;;;;;;;;;;5076963;28;20439;-68
2023/09/12 04:39:06;;;;;;;14.20;12.53;;;;;;;;;;5076783;28;20443;-68
2023/09/12 04:41:33;;;;;;;13.97;12.70;;;;;;;;;;5076715;28;20449;-68
2023/09/12 04:44:02;;;;;;;13.43;12.13;;;;;;;;;;5076417;28;20481;-68
2023/09/12 04:46:29;;;;;;;12.77;11.47;;;;;;;;;;5076552;28;20447;-69
2023/09/12 04:48:55;;;;;;;13.50;12.40;;;;;;;;;;5076694;28;20443;-68
2023/09/12 04:51:24;;;;;;;16.97;12.53;;;;;;;;;;5076591;28;20569;-68
2023/09/12 04:53:51;;;;;;;12.40;11.20;;;;;;;;;;5076558;28;20463;-68
2023/09/12 04:56:18;;;;;;;29.83;17.57;;;;;;;;;;5076309;28;20965;-68
2023/09/12 04:58:45;;;;;;;14.23;12.83;;;;;;;;;;5076272;28;20532;-68
2023/09/12 05:01:12;;;;;;;17.27;13.40;;;;;;;;;;5076200;28;20550;-68
2023/09/12 05:03:39;;;;;;;17.57;13.50;;;;;;;;;;5076485;28;20782;-68
2023/09/12 05:06:06;;;;;;;14.13;12.70;;;;;;;;;;5076313;28;20447;-69
2023/09/12 05:08:34;;;;;;;19.10;13.00;;;;;;;;;;5076190;28;20806;-69
2023/09/12 05:11:02;;;;;;;14.50;12.90;;;;;;;;;;5076006;28;20558;-68
2023/09/12 05:13:28;;;;;;;15.73;14.13;;;;;;;;;;5076038;28;20435;-68
2023/09/12 05:15:55;;;;;;;14.30;13.00;;;;;;;;;;5076177;28;20795;-68
2023/09/12 05:18:22;;;;;;;15.27;13.60;;;;;;;;;;5076105;28;20446;-68
2023/09/12 05:20:49;;;;;;;14.17;12.83;;;;;;;;;;5076055;28;20465;-68
2023/09/12 05:23:16;;;;;;;15.40;13.80;;;;;;;;;;5075803;28;20439;-68
2023/09/12 05:25:44;;;;;;;14.73;13.17;;;;;;;;;;5075602;28;20483;-68
2023/09/12 05:28:15;;;;;;;15.30;13.40;;;;;;;;;;5076018;28;21025;-68
2023/09/12 05:30:42;;;;;;;15.17;13.70;;;;;;;;;;5075950;28;20526;-68
2023/09/12 05:33:09;;;;;;;13.67;12.37;;;;;;;;;;5075803;28;20534;-69
2023/09/12 05:35:37;;;;;;;14.93;13.37;;;;;;;;;;5075153;28;20961;-68
2023/09/12 05:38:04;;;;;;;16.67;14.57;;;;;;;;;;5075571;28;20448;-68
2023/09/12 05:40:31;;;;;;;17.43;14.20;;;;;;;;;;5075398;28;20542;-68
2023/09/12 05:42:59;;;;;;;15.53;14.03;;;;;;;;;;5075692;28;20537;-68
2023/09/12 05:45:26;;;;;;;17.70;15.63;;;;;;;;;;5075437;28;20824;-68
2023/09/12 05:47:53;;;;;;;16.00;14.27;;;;;;;;;;5075525;28;20617;-68
2023/09/12 05:50:21;;;;;;;14.93;13.53;;;;;;;;;;5075475;28;20926;-68
2023/09/12 05:52:47;;;;;;;16.77;13.90;;;;;;;;;;5075254;28;20535;-69
2023/09/12 05:55:15;;;;;;;15.00;13.53;;;;;;;;;;5075414;28;20890;-69
2023/09/12 05:57:42;;;;;;;20.27;14.13;;;;;;;;;;5075266;28;20451;-69
2023/09/12 06:00:11;;;;;;;18.00;16.30;;;;;;;;;;5075154;28;20554;-69
2023/09/12 06:02:39;;;;;;;52.90;18.67;;;;;;;;;;5075181;28;20439;-69
2023/09/12 06:05:06;;;;;;;243.30;39.33;;;;;;;;;;5074672;28;20475;-69
2023/09/12 06:07:33;;;;;;;18.97;16.57;;;;;;;;;;5074965;28;20483;-68
2023/09/12 06:10:00;;;;;;;15.10;13.70;;;;;;;;;;5075190;28;20806;-69
2023/09/12 06:12:27;;;;;;;13.77;12.57;;;;;;;;;;5075092;28;20954;-68
2023/09/12 06:14:55;;;;;;;16.93;15.37;;;;;;;;;;5075061;28;20443;-69
2023/09/12 06:17:23;;;;;;;15.37;13.77;;;;;;;;;;5074989;28;20444;-69
2023/09/12 06:19:50;;;;;;;14.70;13.27;;;;;;;;;;5074882;28;20545;-68
2023/09/12 06:22:17;;;;;;;15.20;13.70;;;;;;;;;;5074699;28;20443;-69
2023/09/12 06:24:44;;;;;;;14.97;13.67;;;;;;;;;;5074605;28;20514;-68
2023/09/12 06:27:18;;;;;;;16.73;15.23;;;;;;;;;;5074584;28;20449;-69
2023/09/12 06:29:45;;;;;;;14.00;12.57;;;;;;;;;;5075053;28;20531;-69
2023/09/12 06:32:12;;;;;;;16.67;14.67;;;;;;;;;;5075061;28;20538;-68
2023/09/12 06:34:40;;;;;;;17.27;15.60;;;;;;;;;;5074259;28;20505;-69
2023/09/12 06:37:07;;;;;;;14.80;13.50;;;;;;;;;;5074557;28;20788;-69
2023/09/12 06:39:34;;;;;;;14.30;13.00;;;;;;;;;;5074500;28;20542;-69
2023/09/12 06:42:02;;;;;;;13.77;12.40;;;;;;;;;;5074396;28;20530;-69
2023/09/12 06:44:29;;;;;;;14.93;13.50;;;;;;;;;;5073885;28;20468;-68
2023/09/12 06:46:55;;;;;;;15.37;13.37;;;;;;;;;;5072889;28;20477;-69
2023/09/12 06:49:22;;;;;;;14.13;12.90;;;;;;;;;;5074409;28;20446;-69
2023/09/12 06:51:51;;;;;;;13.67;12.27;;;;;;;;;;5073092;28;20458;-69
2023/09/12 06:54:18;;;;;;;13.00;11.90;;;;;;;;;;5073610;28;20542;-68
2023/09/12 06:56:44;;;;;;;12.83;11.70;;;;;;;;;;5073559;28;20504;-69
2023/09/12 06:59:12;;;;;;;13.47;12.30;;;;;;;;;;5073433;28;20435;-69
2023/09/12 07:01:39;;;;;;;12.30;11.20;;;;;;;;;;5073272;28;20466;-69
2023/09/12 07:04:06;;;;;;;13.33;12.03;;;;;;;;;;5073511;28;20531;-69
2023/09/12 07:06:33;;;;;;;12.03;10.90;;;;;;;;;;5073487;28;20526;-69
2023/09/12 07:09:02;;;;;;;11.80;10.60;;;;;;;;;;5071878;28;20810;-69
2023/09/12 07:11:29;;;;;;;11.17;10.10;;;;;;;;;;5072068;28;20442;-69
2023/09/12 07:13:56;;;;;;;12.37;10.57;;;;;;;;;;5073031;28;20439;-69
2023/09/12 07:16:23;;;;;;;11.73;10.73;;;;;;;;;;5072655;28;20540;-69
2023/09/12 07:18:50;;;;;;;10.57;9.77;;;;;;;;;;5072762;28;20445;-68
2023/09/12 07:21:17;;;;;;;11.63;10.63;;;;;;;;;;5073297;28;20854;-69
2023/09/12 07:23:44;;;;;;;11.77;10.67;;;;;;;;;;5072012;28;20531;-69
2023/09/12 07:26:15;;;;;;;10.90;10.10;;;;;;;;;;5070296;28;20962;-69
2023/09/12 07:28:42;;;;;;;9.83;9.00;;;;;;;;;;5073154;28;20454;-68
2023/09/12 07:31:09;;;;;;;10.67;9.53;;;;;;;;;;5073055;28;20780;-67
2023/09/12 07:33:37;;;;;;;16.50;9.57;;;;;;;;;;5072098;28;20491;-68
2023/09/12 07:36:04;;;;;;;10.37;8.53;;;;;;;;;;5072531;28;20451;-68
2023/09/12 07:38:31;;;;;;;10.20;9.20;;;;;;;;;;5072618;28;20450;-68
2023/09/12 07:40:59;;;;;;;9.67;8.80;;;;;;;;;;5073382;28;20448;-68
2023/09/12 07:43:28;;;;;;;9.90;8.60;;;;;;;;;;5073109;28;20513;-68
2023/09/12 07:45:57;;;;;;;10.27;9.40;;;;;;;;;;5073143;28;20570;-68
2023/09/12 07:48:23;;;;;;;10.23;9.43;;;;;;;;;;5073325;28;20443;-68
2023/09/12 07:50:51;;;;;;;11.23;9.30;;;;;;;;;;5073218;28;20455;-68
2023/09/12 07:53:18;;;;;;;10.73;9.83;;;;;;;;;;5073118;28;20454;-69
2023/09/12 07:55:46;;;;;;;10.27;9.27;;;;;;;;;;5073077;28;20796;-68
2023/09/12 07:58:13;;;;;;;11.77;9.60;;;;;;;;;;5073154;28;20471;-68
2023/09/12 08:00:41;;;;;;;8.97;8.00;;;;;;;;;;5072767;28;21035;-68
2023/09/12 08:03:08;;;;;;;11.70;9.90;;;;;;;;;;5072935;28;20942;-68
2023/09/12 08:05:35;;;;;;;10.30;9.40;;;;;;;;;;5072941;28;20530;-67
2023/09/12 08:08:02;;;;;;;8.37;7.57;;;;;;;;;;5073032;28;20453;-68
2023/09/12 08:10:29;;;;;;;8.80;8.00;;;;;;;;;;5072962;28;20492;-68
2023/09/12 08:12:56;;;;;;;8.77;8.07;;;;;;;;;;5073124;28;20451;-68
2023/09/12 08:15:23;;;;;;;9.67;8.80;;;;;;;;;;5072973;28;20439;-67
2023/09/12 08:17:53;;;;;;;9.37;8.37;;;;;;;;;;5072936;28;20475;-68
2023/09/12 08:20:19;;;;;;;9.40;8.23;;;;;;;;;;5072842;28;20439;-67
2023/09/12 08:22:46;;;;;;;9.53;8.53;;;;;;;;;;5072733;28;20479;-68
2023/09/12 08:25:14;;;;;;;10.10;9.03;;;;;;;;;;5072879;28;20471;-68
2023/09/12 08:27:43;;;;;;;7.87;7.13;;;;;;;;;;5072881;28;20535;-68
2023/09/12 08:30:10;;;;;;;8.97;8.13;;;;;;;;;;5070122;28;20457;-68
2023/09/12 08:32:39;;;;;;;8.77;7.83;;;;;;;;;;5072900;28;20444;-68
2023/09/12 08:35:08;;;;;;;8.23;6.80;;;;;;;;;;5072026;28;20451;-68
2023/09/12 08:37:35;;;;;;;11.33;7.40;;;;;;;;;;5072333;28;20443;-68
2023/09/12 08:40:07;;;;;;;9.83;7.57;;;;;;;;;;5072107;28;20478;-68
2023/09/12 08:42:34;;;;;;;8.83;8.03;;;;;;;;;;5071947;28;20811;-68
2023/09/12 08:45:02;;;;;;;10.03;6.57;;;;;;;;;;5071928;28;20470;-68
2023/09/12 08:47:29;;;;;;;8.93;8.03;;;;;;;;;;5073761;28;20440;-67
2023/09/12 08:49:56;;;;;;;10.50;8.00;;;;;;;;;;5072174;28;20475;-67
2023/09/12 08:52:25;;;;;;;9.47;7.10;;;;;;;;;;5072195;28;20443;-67
2023/09/12 08:54:52;;;;;;;8.60;7.33;;;;;;;;;;5071982;28;20537;-68
2023/09/12 08:57:19;;;;;;;10.70;7.07;;;;;;;;;;5071978;28;20439;-68
2023/09/12 08:59:47;;;;;;;12.50;7.50;;;;;;;;;;5071552;28;20493;-68
2023/09/12 09:02:14;;;;;;;8.97;6.70;;;;;;;;;;5071765;28;20494;-68
2023/09/12 09:04:43;;;;;;;7.50;6.27;;;;;;;;;;5069027;28;20440;-68
2023/09/12 09:07:11;;;;;;;11.10;7.23;;;;;;;;;;5071841;28;20798;-69
2023/09/12 09:09:39;;;;;;;7.63;6.00;;;;;;;;;;5073488;28;20530;-69
2023/09/12 09:12:08;;;;;;;12.03;6.97;;;;;;;;;;5075557;28;21226;-68
2023/09/12 09:14:35;;;;;;;10.03;6.40;;;;;;;;;;5075405;28;20780;-69
2023/09/12 09:17:02;;;;;;;7.00;6.00;;;;;;;;;;5075251;28;21011;-69
2023/09/12 09:19:41;;;;;;;8.13;5.63;;;;;;;;;;5075529;28;20526;-68
2023/09/12 09:22:08;;;;;;;7.40;5.90;;;;;;;;;;5073806;28;20439;-69
2023/09/12 09:24:35;;;;;;;8.07;6.30;;;;;;;;;;5076217;28;20445;-69
2023/09/12 09:27:04;;;;;;;6.30;5.80;;;;;;;;;;5075078;28;20471;-68
2023/09/12 09:29:33;;;;;;;8.13;6.00;;;;;;;;;;5075088;28;20445;-68
2023/09/12 09:32:01;;;;;;;6.27;5.70;;;;;;;;;;5072603;28;20497;-69
2023/09/12 09:34:29;;;;;;;10.53;7.30;;;;;;;;;;5075155;28;20438;-68
2023/09/12 09:36:57;;;;;;;7.30;6.23;;;;;;;;;;5075083;28;20436;-68
2023/09/12 09:39:25;;;;;;;7.03;6.43;;;;;;;;;;5075028;28;20451;-68
2023/09/12 09:41:53;;;;;;;7.93;6.03;;;;;;;;;;5074822;28;20436;-68
2023/09/12 09:44:22;;;;;;;6.00;5.40;;;;;;;;;;5074387;28;20439;-68
2023/09/12 09:46:52;;;;;;;9.67;6.60;;;;;;;;;;5074776;28;20479;-68
2023/09/12 09:49:21;;;;;;;6.50;5.90;;;;;;;;;;5073065;28;20799;-68
2023/09/12 09:51:48;;;;;;;6.33;5.70;;;;;;;;;;5074651;28;20474;-68
2023/09/12 09:54:15;;;;;;;9.20;5.80;;;;;;;;;;5074813;28;20468;-69
2023/09/12 09:56:48;;;;;;;7.00;5.30;;;;;;;;;;5074587;28;20958;-68
2023/09/12 09:59:16;;;;;;;10.33;5.50;;;;;;;;;;5072662;28;20523;-68
2023/09/12 10:01:45;;;;;;;8.10;5.63;;;;;;;;;;5074350;28;20463;-68
2023/09/12 10:04:11;;;;;;;6.93;5.23;;;;;;;;;;5074345;28;20454;-69
2023/09/12 10:06:39;;;;;;;11.73;6.33;;;;;;;;;;5074251;28;20482;-68
2023/09/12 10:09:07;;;;;;;8.90;5.07;;;;;;;;;;5074305;28;20447;-68
2023/09/12 10:11:34;;;;;;;8.90;5.60;;;;;;;;;;5074680;28;20530;-68
2023/09/12 10:14:04;;;;;;;10.97;5.57;;;;;;;;;;5074354;28;20443;-68
2023/09/12 10:16:32;;;;;;;12.53;5.87;;;;;;;;;;5074402;28;20443;-68
2023/09/12 10:19:06;;;;;;;9.50;5.30;;;;;;;;;;5074243;28;20554;-68
2023/09/12 10:21:35;;;;;;;8.27;5.50;;;;;;;;;;5073562;28;20440;-69
2023/09/12 10:24:04;;;;;;;9.83;6.07;;;;;;;;;;5074977;28;20858;-68
2023/09/12 10:26:32;;;;;;;10.23;6.30;;;;;;;;;;5074675;28;20483;-69
2023/09/12 10:28:59;;;;;;;13.30;6.33;;;;;;;;;;5073170;28;20440;-68
2023/09/12 10:31:26;;;;;;;11.10;5.83;;;;;;;;;;5073226;28;20440;-68
2023/09/12 10:33:54;;;;;;;10.67;5.87;;;;;;;;;;5073408;28;20927;-68
2023/09/12 10:36:23;;;;;;;10.33;6.53;;;;;;;;;;5073652;28;20443;-67
2023/09/12 10:38:50;;;;;;;9.20;5.57;;;;;;;;;;5072661;28;20570;-67
2023/09/12 10:41:17;;;;;;;8.67;5.93;;;;;;;;;;5072827;28;20669;-67
2023/09/12 10:43:47;;;;;;;12.60;5.10;;;;;;;;;;5072364;28;20443;-67
2023/09/12 10:46:14;;;;;;;8.23;5.07;;;;;;;;;;5072155;28;20515;-67
2023/09/12 10:48:41;;;;;;;9.50;5.50;;;;;;;;;;5072232;28;20534;-67
2023/09/12 10:51:09;;;;;;;12.73;5.10;;;;;;;;;;5072265;28;20443;-68
2023/09/12 10:53:38;;;;;;;8.67;5.60;;;;;;;;;;5072308;28;20585;-67
2023/09/12 10:56:16;;;;;;;11.03;5.60;;;;;;;;;;5072384;28;20807;-67
2023/09/12 10:58:58;;;;;;;11.00;5.73;;;;;;;;;;5074179;28;20965;-68
2023/09/12 11:01:25;;;;;;;11.73;6.00;;;;;;;;;;5073614;28;20835;-67
2023/09/12 11:03:52;;;;;;;12.63;6.00;;;;;;;;;;5074059;28;20439;-68
2023/09/12 11:06:23;;;;;;;9.57;6.43;;;;;;;;;;5073878;28;20479;-68
2023/09/12 11:09:08;;;;;;;12.00;6.33;;;;;;;;;;5073638;28;20452;-69
2023/09/12 11:11:37;;;;;;;12.27;6.70;;;;;;;;;;5073758;28;20444;-67
2023/09/12 11:14:04;;;;;;;8.40;6.03;;;;;;;;;;5073989;28;20863;-69
2023/09/12 11:16:31;;;;;;;7.60;6.03;;;;;;;;;;5073861;28;20853;-68
2023/09/12 11:19:14;;;;;;;10.00;6.10;;;;;;;;;;5073696;28;20458;-68
2023/09/12 11:21:41;;;;;;;10.20;5.93;;;;;;;;;;5073607;28;20541;-67
2023/09/12 11:24:08;;;;;;;18.43;7.00;;;;;;;;;;5073478;28;20448;-68
2023/09/12 11:26:36;;;;;;;14.00;6.90;;;;;;;;;;5073605;28;20505;-68
2023/09/12 11:29:13;;;;;;;8.50;6.13;;;;;;;;;;5073619;28;20549;-68
2023/09/12 11:31:42;;;;;;;8.37;5.93;;;;;;;;;;5073111;28;20449;-68
2023/09/12 11:34:10;;;;;;;11.37;6.73;;;;;;;;;;5073345;28;20452;-68
2023/09/12 11:36:39;;;;;;;9.73;5.70;;;;;;;;;;5073304;28;20444;-69
2023/09/12 11:39:23;;;;;;;10.77;6.80;;;;;;;;;;5073416;28;20443;-69
2023/09/12 11:41:52;;;;;;;13.00;6.00;;;;;;;;;;5073531;28;20451;-68
2023/09/12 11:44:19;;;;;;;12.93;5.47;;;;;;;;;;5073337;28;20525;-67
2023/09/12 11:46:48;;;;;;;9.83;5.90;;;;;;;;;;5073230;28;20485;-68
2023/09/12 11:49:15;;;;;;;8.60;6.83;;;;;;;;;;5073141;28;20439;-68
2023/09/12 11:51:48;;;;;;;8.00;6.40;;;;;;;;;;5073384;28;20482;-68
2023/09/12 11:54:15;;;;;;;10.83;6.80;;;;;;;;;;5073098;28;20454;-68
2023/09/12 11:56:42;;;;;;;11.97;6.67;;;;;;;;;;5073117;28;20531;-69
2023/09/12 11:59:11;;;;;;;10.97;6.00;;;;;;;;;;5072551;28;20530;-69
2023/09/12 12:01:38;;;;;;;9.20;5.50;;;;;;;;;;5072154;28;21058;-69
2023/09/12 12:04:06;;;;;;;14.77;6.67;;;;;;;;;;5070000;28;20446;-70
2023/09/12 12:06:35;;;;;;;7.37;5.90;;;;;;;;;;5072487;28;20491;-69
2023/09/12 12:09:04;;;;;;;9.20;5.93;;;;;;;;;;5072515;28;20550;-69
2023/09/12 12:11:31;;;;;;;9.63;6.17;;;;;;;;;;5072556;28;20811;-69
2023/09/12 12:13:58;;;;;;;6.70;5.73;;;;;;;;;;5072363;28;20467;-70
2023/09/12 12:16:27;;;;;;;12.50;6.23;;;;;;;;;;5069674;28;20443;-70
2023/09/12 12:18:57;;;;;;;9.43;6.10;;;;;;;;;;5072617;28;20440;-69
2023/09/12 12:21:23;;;;;;;10.63;5.60;;;;;;;;;;5072403;28;20435;-69
2023/09/12 12:23:59;;;;;;;15.97;6.47;;;;;;;;;;5072715;28;20450;-69
2023/09/12 12:26:26;;;;;;;13.63;6.03;;;;;;;;;;5072765;28;20491;-70
2023/09/12 12:28:53;;;;;;;8.77;6.13;;;;;;;;;;5072682;28;20455;-69
2023/09/12 12:31:21;;;;;;;9.33;6.57;;;;;;;;;;5072915;28;20479;-69
2023/09/12 12:33:54;;;;;;;14.97;6.47;;;;;;;;;;5072859;28;20445;-70
2023/09/12 12:36:21;;;;;;;6.00;5.40;;;;;;;;;;5072612;28;21041;-69
2023/09/12 12:38:49;;;;;;;11.37;6.40;;;;;;;;;;5072609;28;20451;-69
2023/09/12 12:41:17;;;;;;;9.53;5.97;;;;;;;;;;5072559;28;20534;-69
2023/09/12 12:43:44;;;;;;;8.77;5.27;;;;;;;;;;5073124;28;20884;-70
2023/09/12 12:46:13;;;;;;;14.73;6.73;;;;;;;;;;5076591;28;20471;-69
2023/09/12 12:48:43;;;;;;;9.03;5.73;;;;;;;;;;5076473;28;20451;-70
2023/09/12 12:51:16;;;;;;;14.87;5.30;;;;;;;;;;5076602;28;20808;-70
2023/09/12 12:53:43;;;;;;;14.23;6.73;;;;;;;;;;5076420;28;20474;-70
2023/09/12 12:56:12;;;;;;;7.17;5.00;;;;;;;;;;5076525;28;20449;-69
2023/09/12 12:58:39;;;;;;;8.80;5.23;;;;;;;;;;5076302;28;20899;-70
2023/09/12 13:01:06;;;;;;;9.67;5.50;;;;;;;;;;5076111;28;20563;-70
2023/09/12 13:03:33;;;;;;;12.07;5.80;;;;;;;;;;5076263;28;20530;-71
2023/09/12 13:06:00;;;;;;;10.13;5.63;;;;;;;;;;5076118;28;20527;-70
2023/09/12 13:08:28;;;;;;;11.90;6.53;;;;;;;;;;5075962;28;20538;-70
2023/09/12 13:10:56;;;;;;;12.43;6.20;;;;;;;;;;5076266;28;20449;-71
2023/09/12 13:13:23;;;;;;;10.97;6.57;;;;;;;;;;5076136;28;20864;-69
2023/09/12 13:15:50;;;;;;;13.47;5.97;;;;;;;;;;5076052;28;20443;-70
2023/09/12 13:18:17;;;;;;;13.10;6.37;;;;;;;;;;5076001;28;20447;-70
2023/09/12 13:20:44;;;;;;;13.30;5.80;;;;;;;;;;5075848;28;20496;-70
2023/09/12 13:23:11;;;;;;;11.33;5.93;;;;;;;;;;5076176;28;20447;-70
2023/09/12 13:25:40;;;;;;;10.30;5.90;;;;;;;;;;5075681;28;21247;-70
2023/09/12 13:28:08;;;;;;;10.90;5.83;;;;;;;;;;5075882;28;20483;-70
2023/09/12 13:30:34;;;;;;;15.27;5.47;;;;;;;;;;5075869;28;20447;-70
2023/09/12 13:33:03;;;;;;;8.70;5.23;;;;;;;;;;5075797;28;20444;-70
2023/09/12 13:35:31;;;;;;;9.07;5.73;;;;;;;;;;5075515;28;20454;-70
2023/09/12 13:37:58;;;;;;;12.37;5.90;;;;;;;;;;5075769;28;20463;-70
2023/09/12 13:40:27;;;;;;;9.80;5.60;;;;;;;;;;5075752;28;20450;-70
2023/09/12 13:42:57;;;;;;;11.00;5.73;;;;;;;;;;5075685;28;20530;-70
2023/09/12 13:45:23;;;;;;;12.53;5.90;;;;;;;;;;5075479;28;20458;-70
2023/09/12 13:47:50;;;;;;;8.50;5.13;;;;;;;;;;5075167;28;20481;-69
2023/09/12 13:50:17;;;;;;;16.53;7.30;;;;;;;;;;5075483;28;20867;-71
2023/09/12 13:52:45;;;;;;;10.80;5.60;;;;;;;;;;5075432;28;20475;-71
2023/09/12 13:55:14;;;;;;;10.67;5.57;;;;;;;;;;5075070;28;20546;-70
2023/09/12 13:57:41;;;;;;;14.00;5.40;;;;;;;;;;5075161;28;20455;-70
2023/09/12 14:00:10;;;;;;;11.00;6.50;;;;;;;;;;5074777;28;20508;-70
2023/09/12 14:02:37;;;;;;;14.53;6.00;;;;;;;;;;5074899;28;20443;-70
2023/09/12 14:05:04;;;;;;;9.53;4.90;;;;;;;;;;5075153;28;20449;-70
2023/09/12 14:07:31;;;;;;;12.23;5.10;;;;;;;;;;5074857;28;20546;-71
2023/09/12 14:09:57;;;;;;;9.93;4.80;;;;;;;;;;5074926;28;20542;-71
2023/09/12 14:12:25;;;;;;;15.07;6.97;;;;;;;;;;5072741;28;20446;-71
2023/09/12 14:14:52;;;;;;;6.07;5.47;;;;;;;;;;5072748;28;20934;-71
2023/09/12 14:17:21;;;;;;;10.80;5.40;;;;;;;;;;5072779;28;20450;-71
2023/09/12 14:19:48;;;;;;;6.70;5.30;;;;;;;;;;5072796;28;20451;-71
2023/09/12 14:22:15;;;;;;;14.50;5.73;;;;;;;;;;5072926;28;20479;-71
2023/09/12 14:24:42;;;;;;;6.70;5.43;;;;;;;;;;5072929;28;20475;-71
2023/09/12 14:27:09;;;;;;;8.73;6.10;;;;;;;;;;5073079;28;20514;-71
2023/09/12 14:29:36;;;;;;;10.60;4.93;;;;;;;;;;5074664;28;20875;-71
2023/09/12 14:32:03;;;;;;;9.07;6.57;;;;;;;;;;5074775;28;20538;-71
2023/09/12 14:34:32;;;;;;;5.47;5.00;;;;;;;;;;5074805;28;20534;-71
2023/09/12 14:37:00;;;;;;;13.77;5.83;;;;;;;;;;5074769;28;20459;-71
2023/09/12 14:39:27;;;;;;;12.20;6.30;;;;;;;;;;5074486;28;20538;-71
2023/09/12 14:41:54;;;;;;;12.03;6.03;;;;;;;;;;5074478;28;20449;-71
2023/09/12 14:44:21;;;;;;;10.23;5.70;;;;;;;;;;5074373;28;20440;-71
2023/09/12 14:46:48;;;;;;;8.37;5.83;;;;;;;;;;5074176;28;20471;-71
2023/09/12 14:49:15;;;;;;;13.47;4.87;;;;;;;;;;5074473;28;20498;-71
2023/09/12 14:51:43;;;;;;;7.63;6.30;;;;;;;;;;5074252;28;20448;-71
2023/09/12 14:54:11;;;;;;;12.10;5.97;;;;;;;;;;5074185;28;20538;-71
2023/09/12 14:56:38;;;;;;;10.97;7.17;;;;;;;;;;5074079;28;20440;-71
2023/09/12 14:59:05;;;;;;;9.67;5.87;;;;;;;;;;5074465;28;20859;-71
2023/09/12 15:01:34;;;;;;;14.03;6.40;;;;;;;;;;5073885;28;20589;-71
2023/09/12 15:04:01;;;;;;;10.60;5.43;;;;;;;;;;5074086;28;20443;-71
2023/09/12 15:06:32;;;;;;;6.70;6.00;;;;;;;;;;5073304;28;20497;-71
2023/09/12 15:09:01;;;;;;;10.47;6.27;;;;;;;;;;5073929;28;20444;-71
2023/09/12 15:11:27;;;;;;;10.90;5.97;;;;;;;;;;5074059;28;20444;-71
2023/09/12 15:13:54;;;;;;;7.23;5.50;;;;;;;;;;5074188;28;20554;-71
2023/09/12 15:16:21;;;;;;;9.37;5.90;;;;;;;;;;5073429;28;21013;-71
2023/09/12 15:18:48;;;;;;;5.80;5.03;;;;;;;;;;5073859;28;20477;-71
2023/09/12 15:21:15;;;;;;;9.60;6.10;;;;;;;;;;5073748;28;20452;-71
2023/09/12 15:23:42;;;;;;;5.30;4.80;;;;;;;;;;5073538;28;20443;-71
2023/09/12 15:26:10;;;;;;;10.23;5.50;;;;;;;;;;5073762;28;20447;-71